sensor_id;sensor_type;location;lat;lon;timestamp;pressure;altitude;pressure_sealevel;temperature;humidity
19112;BME280;9688;51.906;8.376;2023-06-10T00:00:05;100684.25;;;21.59;61.50
19112;BME280;9688;51.906;8.376;2023-06-10T00:02:51;100685.47;;;21.55;61.53
19112;BME280;9688;51.906;8.376;2023-06-10T00:05:38;100684.75;;;21.53;61.64
19112;BME280;9688;51.906;8.376;2023-06-10T00:08:24;100690.50;;;21.49;61.58
19112;BME280;9688;51.906;8.376;2023-06-10T00:11:10;100676.59;;;21.44;61.65
19112;BME280;9688;51.906;8.376;2023-06-10T00:13:56;100683.06;;;21.41;61.92
19112;BME280;9688;51.906;8.376;2023-06-10T00:16:42;100685.75;;;21.41;61.79
19112;BME280;9688;51.906;8.376;2023-06-10T00:19:28;100680.72;;;21.36;61.94
19112;BME280;9688;51.906;8.376;2023-06-10T00:22:17;100680.97;;;21.33;62.07
19112;BME280;9688;51.906;8.376;2023-06-10T00:25:05;100677.81;;;21.28;61.39
19112;BME280;9688;51.906;8.376;2023-06-10T00:27:51;100680.63;;;21.27;61.69
19112;BME280;9688;51.906;8.376;2023-06-10T00:30:37;100687.22;;;21.23;61.91
19112;BME280;9688;51.906;8.376;2023-06-10T00:33:23;100685.69;;;21.20;61.66
19112;BME280;9688;51.906;8.376;2023-06-10T00:36:10;100684.81;;;21.20;62.07
19112;BME280;9688;51.906;8.376;2023-06-10T00:38:57;100684.34;;;21.14;61.86
19112;BME280;9688;51.906;8.376;2023-06-10T00:41:43;100689.00;;;21.12;61.98
19112;BME280;9688;51.906;8.376;2023-06-10T00:44:29;100687.25;;;21.11;62.26
19112;BME280;9688;51.906;8.376;2023-06-10T00:47:15;100690.34;;;21.07;61.89
19112;BME280;9688;51.906;8.376;2023-06-10T00:50:01;100693.28;;;21.04;62.17
19112;BME280;9688;51.906;8.376;2023-06-10T00:52:48;100690.84;;;21.01;61.96
19112;BME280;9688;51.906;8.376;2023-06-10T00:55:37;100690.97;;;20.99;61.91
19112;BME280;9688;51.906;8.376;2023-06-10T00:58:24;100693.16;;;20.94;61.80
19112;BME280;9688;51.906;8.376;2023-06-10T01:01:10;100695.25;;;20.90;61.68
19112;BME280;9688;51.906;8.376;2023-06-10T01:03:56;100689.28;;;20.87;61.51
19112;BME280;9688;51.906;8.376;2023-06-10T01:06:50;100688.53;;;20.85;61.47
19112;BME280;9688;51.906;8.376;2023-06-10T01:09:45;100698.78;;;20.80;61.70
19112;BME280;9688;51.906;8.376;2023-06-10T01:12:44;100687.31;;;20.78;61.97
19112;BME280;9688;51.906;8.376;2023-06-10T01:15:34;100693.94;;;20.74;61.66
19112;BME280;9688;51.906;8.376;2023-06-10T01:18:22;100692.59;;;20.68;61.73
19112;BME280;9688;51.906;8.376;2023-06-10T01:21:07;100695.63;;;20.63;61.97
19112;BME280;9688;51.906;8.376;2023-06-10T01:23:55;100693.28;;;20.59;61.94
19112;BME280;9688;51.906;8.376;2023-06-10T01:26:42;100695.38;;;20.55;61.90
19112;BME280;9688;51.906;8.376;2023-06-10T01:29:37;100695.69;;;20.50;61.65
19112;BME280;9688;51.906;8.376;2023-06-10T01:32:31;100693.50;;;20.44;61.92
19112;BME280;9688;51.906;8.376;2023-06-10T01:35:21;100694.59;;;20.42;61.87
19112;BME280;9688;51.906;8.376;2023-06-10T01:38:10;100702.91;;;20.39;61.80
19112;BME280;9688;51.906;8.376;2023-06-10T01:41:00;100700.59;;;20.34;62.42
19112;BME280;9688;51.906;8.376;2023-06-10T01:43:47;100702.63;;;20.31;61.90
19112;BME280;9688;51.906;8.376;2023-06-10T01:46:33;100699.44;;;20.25;61.99
19112;BME280;9688;51.906;8.376;2023-06-10T01:49:19;100704.34;;;20.20;62.40
19112;BME280;9688;51.906;8.376;2023-06-10T01:52:07;100698.09;;;20.20;62.25
19112;BME280;9688;51.906;8.376;2023-06-10T01:54:53;100702.00;;;20.16;62.13
19112;BME280;9688;51.906;8.376;2023-06-10T01:57:41;100706.78;;;20.12;62.17
19112;BME280;9688;51.906;8.376;2023-06-10T02:00:27;100697.84;;;20.12;62.17
19112;BME280;9688;51.906;8.376;2023-06-10T02:03:13;100696.88;;;20.13;61.65
19112;BME280;9688;51.906;8.376;2023-06-10T02:05:59;100697.13;;;20.10;61.68
19112;BME280;9688;51.906;8.376;2023-06-10T02:08:46;100702.59;;;20.08;61.70
19112;BME280;9688;51.906;8.376;2023-06-10T02:11:31;100706.25;;;20.07;61.80
19112;BME280;9688;51.906;8.376;2023-06-10T02:14:19;100705.19;;;20.10;61.67
19112;BME280;9688;51.906;8.376;2023-06-10T02:17:05;100704.53;;;20.06;61.21
19112;BME280;9688;51.906;8.376;2023-06-10T02:19:52;100718.31;;;20.01;61.48
19112;BME280;9688;51.906;8.376;2023-06-10T02:22:37;100720.25;;;19.99;61.48
19112;BME280;9688;51.906;8.376;2023-06-10T02:25:24;100728.31;;;19.99;61.37
19112;BME280;9688;51.906;8.376;2023-06-10T02:28:09;100719.53;;;19.97;61.43
19112;BME280;9688;51.906;8.376;2023-06-10T02:30:57;100724.16;;;19.95;61.06
19112;BME280;9688;51.906;8.376;2023-06-10T02:33:43;100724.50;;;19.91;61.09
19112;BME280;9688;51.906;8.376;2023-06-10T02:36:29;100724.50;;;19.91;60.96
19112;BME280;9688;51.906;8.376;2023-06-10T02:39:16;100727.06;;;19.92;61.06
19112;BME280;9688;51.906;8.376;2023-06-10T02:42:01;100728.03;;;19.91;61.37
19112;BME280;9688;51.906;8.376;2023-06-10T02:44:47;100729.03;;;19.90;61.26
19112;BME280;9688;51.906;8.376;2023-06-10T02:47:37;100733.75;;;19.87;60.94
19112;BME280;9688;51.906;8.376;2023-06-10T02:50:24;100732.38;;;19.81;61.03
19112;BME280;9688;51.906;8.376;2023-06-10T02:53:09;100730.31;;;19.73;61.19
19112;BME280;9688;51.906;8.376;2023-06-10T02:55:55;100723.66;;;19.66;62.11
19112;BME280;9688;51.906;8.376;2023-06-10T02:58:41;100730.22;;;19.62;62.08
19112;BME280;9688;51.906;8.376;2023-06-10T03:01:27;100739.97;;;19.63;61.91
19112;BME280;9688;51.906;8.376;2023-06-10T03:04:16;100733.75;;;19.63;62.29
19112;BME280;9688;51.906;8.376;2023-06-10T03:07:03;100734.94;;;19.58;62.46
19112;BME280;9688;51.906;8.376;2023-06-10T03:09:51;100735.91;;;19.57;62.18
19112;BME280;9688;51.906;8.376;2023-06-10T03:12:37;100737.00;;;19.55;62.32
19112;BME280;9688;51.906;8.376;2023-06-10T03:15:23;100731.72;;;19.53;62.48
19112;BME280;9688;51.906;8.376;2023-06-10T03:18:09;100741.59;;;19.53;63.13
19112;BME280;9688;51.906;8.376;2023-06-10T03:20:57;100743.34;;;19.54;63.31
19112;BME280;9688;51.906;8.376;2023-06-10T03:23:43;100748.56;;;19.55;62.98
19112;BME280;9688;51.906;8.376;2023-06-10T03:26:28;100748.81;;;19.52;62.90
19112;BME280;9688;51.906;8.376;2023-06-10T03:29:14;100744.41;;;19.51;63.20
19112;BME280;9688;51.906;8.376;2023-06-10T03:31:59;100751.72;;;19.49;63.22
19112;BME280;9688;51.906;8.376;2023-06-10T03:34:44;100746.44;;;19.48;63.11
19112;BME280;9688;51.906;8.376;2023-06-10T03:37:33;100744.97;;;19.44;63.21
19112;BME280;9688;51.906;8.376;2023-06-10T03:40:19;100745.94;;;19.43;63.45
19112;BME280;9688;51.906;8.376;2023-06-10T03:43:04;100745.22;;;19.41;63.27
19112;BME280;9688;51.906;8.376;2023-06-10T03:45:50;100752.28;;;19.42;63.23
19112;BME280;9688;51.906;8.376;2023-06-10T03:48:36;100747.53;;;19.45;63.54
19112;BME280;9688;51.906;8.376;2023-06-10T03:51:24;100750.00;;;19.48;63.52
19112;BME280;9688;51.906;8.376;2023-06-10T03:54:11;100741.59;;;19.53;63.60
19112;BME280;9688;51.906;8.376;2023-06-10T03:56:57;100744.81;;;19.58;63.76
19112;BME280;9688;51.906;8.376;2023-06-10T03:59:42;100747.88;;;19.65;63.61
19112;BME280;9688;51.906;8.376;2023-06-10T04:02:28;100741.47;;;19.67;63.20
19112;BME280;9688;51.906;8.376;2023-06-10T04:05:13;100729.88;;;19.67;63.36
19112;BME280;9688;51.906;8.376;2023-06-10T04:07:59;100734.16;;;19.69;63.24
19112;BME280;9688;51.906;8.376;2023-06-10T04:10:46;100736.75;;;19.71;63.42
19112;BME280;9688;51.906;8.376;2023-06-10T04:13:32;100739.91;;;19.76;63.41
19112;BME280;9688;51.906;8.376;2023-06-10T04:16:18;100739.47;;;19.82;63.21
19112;BME280;9688;51.906;8.376;2023-06-10T04:19:03;100741.69;;;19.88;63.43
19112;BME280;9688;51.906;8.376;2023-06-10T04:21:48;100751.22;;;19.92;62.70
19112;BME280;9688;51.906;8.376;2023-06-10T04:24:34;100751.22;;;19.92;62.57
19112;BME280;9688;51.906;8.376;2023-06-10T04:27:20;100742.31;;;19.92;62.87
19112;BME280;9688;51.906;8.376;2023-06-10T04:30:07;100750.88;;;19.97;62.44
19112;BME280;9688;51.906;8.376;2023-06-10T04:32:53;100748.19;;;19.97;62.37
19112;BME280;9688;51.906;8.376;2023-06-10T04:35:38;100753.44;;;19.98;62.12
19112;BME280;9688;51.906;8.376;2023-06-10T04:38:23;100761.03;;;20.04;62.30
19112;BME280;9688;51.906;8.376;2023-06-10T04:41:09;100759.44;;;20.02;62.36
19112;BME280;9688;51.906;8.376;2023-06-10T04:43:56;100756.38;;;19.95;62.87
19112;BME280;9688;51.906;8.376;2023-06-10T04:46:41;100758.44;;;20.03;62.88
19112;BME280;9688;51.906;8.376;2023-06-10T04:49:27;100756.03;;;20.11;62.93
19112;BME280;9688;51.906;8.376;2023-06-10T04:52:14;100763.19;;;20.23;62.76
19112;BME280;9688;51.906;8.376;2023-06-10T04:54:59;100765.25;;;20.31;62.89
19112;BME280;9688;51.906;8.376;2023-06-10T04:57:44;100753.16;;;20.25;63.56
19112;BME280;9688;51.906;8.376;2023-06-10T05:00:31;100759.03;;;20.42;63.18
19112;BME280;9688;51.906;8.376;2023-06-10T05:03:17;100765.13;;;20.68;62.53
19112;BME280;9688;51.906;8.376;2023-06-10T05:06:02;100765.47;;;20.63;62.85
19112;BME280;9688;51.906;8.376;2023-06-10T05:08:48;100764.28;;;20.67;63.16
19112;BME280;9688;51.906;8.376;2023-06-10T05:11:34;100766.72;;;20.82;62.67
19112;BME280;9688;51.906;8.376;2023-06-10T05:14:19;100768.28;;;21.18;60.90
19112;BME280;9688;51.906;8.376;2023-06-10T05:17:06;100752.75;;;21.33;60.20
19112;BME280;9688;51.906;8.376;2023-06-10T05:19:52;100768.38;;;21.28;60.36
19112;BME280;9688;51.906;8.376;2023-06-10T05:22:37;100766.34;;;21.31;60.36
19112;BME280;9688;51.906;8.376;2023-06-10T05:25:25;100767.03;;;21.33;59.73
19112;BME280;9688;51.906;8.376;2023-06-10T05:28:11;100776.47;;;21.39;59.60
19112;BME280;9688;51.906;8.376;2023-06-10T05:30:57;100774.66;;;21.40;59.50
19112;BME280;9688;51.906;8.376;2023-06-10T05:33:43;100773.28;;;21.34;58.84
19112;BME280;9688;51.906;8.376;2023-06-10T05:36:29;100773.28;;;21.34;58.35
19112;BME280;9688;51.906;8.376;2023-06-10T05:39:15;100775.50;;;21.40;57.85
19112;BME280;9688;51.906;8.376;2023-06-10T05:42:00;100770.97;;;21.41;57.57
19112;BME280;9688;51.906;8.376;2023-06-10T05:44:47;100765.94;;;21.47;57.09
19112;BME280;9688;51.906;8.376;2023-06-10T05:47:32;100766.81;;;21.48;57.00
19112;BME280;9688;51.906;8.376;2023-06-10T05:50:19;100760.44;;;21.49;56.82
19112;BME280;9688;51.906;8.376;2023-06-10T05:53:05;100771.31;;;21.47;56.65
19112;BME280;9688;51.906;8.376;2023-06-10T05:55:52;100761.44;;;21.48;56.26
19112;BME280;9688;51.906;8.376;2023-06-10T05:58:41;100764.22;;;21.57;55.73
19112;BME280;9688;51.906;8.376;2023-06-10T06:01:27;100763.19;;;21.70;55.09
19112;BME280;9688;51.906;8.376;2023-06-10T06:04:13;100761.44;;;21.80;54.36
19112;BME280;9688;51.906;8.376;2023-06-10T06:07:00;100765.59;;;21.84;54.45
19112;BME280;9688;51.906;8.376;2023-06-10T06:09:46;100765.56;;;21.95;54.01
19112;BME280;9688;51.906;8.376;2023-06-10T06:12:31;100760.34;;;22.15;53.72
19112;BME280;9688;51.906;8.376;2023-06-10T06:15:17;100761.66;;;22.41;52.85
19112;BME280;9688;51.906;8.376;2023-06-10T06:18:04;100764.13;;;22.96;51.54
19112;BME280;9688;51.906;8.376;2023-06-10T06:20:49;100758.66;;;23.17;51.02
19112;BME280;9688;51.906;8.376;2023-06-10T06:23:37;100751.97;;;23.11;50.76
19112;BME280;9688;51.906;8.376;2023-06-10T06:26:22;100762.16;;;23.08;50.52
19112;BME280;9688;51.906;8.376;2023-06-10T06:29:08;100751.81;;;23.03;50.55
19112;BME280;9688;51.906;8.376;2023-06-10T06:31:53;100752.84;;;23.22;49.67
19112;BME280;9688;51.906;8.376;2023-06-10T06:34:39;100759.00;;;23.33;49.11
19112;BME280;9688;51.906;8.376;2023-06-10T06:37:25;100754.59;;;23.32;48.77
19112;BME280;9688;51.906;8.376;2023-06-10T06:40:13;100750.03;;;23.33;48.58
19112;BME280;9688;51.906;8.376;2023-06-10T06:42:58;100746.38;;;23.34;48.19
19112;BME280;9688;51.906;8.376;2023-06-10T06:45:44;100749.63;;;23.47;48.18
19112;BME280;9688;51.906;8.376;2023-06-10T06:48:30;100753.78;;;23.61;48.06
19112;BME280;9688;51.906;8.376;2023-06-10T06:51:16;100749.38;;;23.60;48.63
19112;BME280;9688;51.906;8.376;2023-06-10T06:54:02;100757.47;;;23.60;47.94
19112;BME280;9688;51.906;8.376;2023-06-10T06:56:52;100750.09;;;23.62;47.14
19112;BME280;9688;51.906;8.376;2023-06-10T06:59:38;100752.41;;;23.76;47.24
19112;BME280;9688;51.906;8.376;2023-06-10T07:02:23;100753.00;;;23.90;47.31
19112;BME280;9688;51.906;8.376;2023-06-10T07:05:09;100754.25;;;24.05;46.45
19112;BME280;9688;51.906;8.376;2023-06-10T07:07:55;100750.25;;;24.19;46.08
19112;BME280;9688;51.906;8.376;2023-06-10T07:10:40;100745.88;;;24.18;45.93
19112;BME280;9688;51.906;8.376;2023-06-10T07:13:28;100749.84;;;24.23;45.53
19112;BME280;9688;51.906;8.376;2023-06-10T07:16:13;100742.56;;;24.34;44.08
19112;BME280;9688;51.906;8.376;2023-06-10T07:18:59;100745.81;;;24.47;43.09
19112;BME280;9688;51.906;8.376;2023-06-10T07:21:45;100747.22;;;24.61;43.50
19112;BME280;9688;51.906;8.376;2023-06-10T07:24:30;100751.34;;;24.65;42.45
19112;BME280;9688;51.906;8.376;2023-06-10T07:27:16;100758.00;;;24.70;42.04
19112;BME280;9688;51.906;8.376;2023-06-10T07:30:04;100764.38;;;24.79;41.54
19112;BME280;9688;51.906;8.376;2023-06-10T07:32:51;100759.81;;;24.89;40.92
19112;BME280;9688;51.906;8.376;2023-06-10T07:35:37;100765.88;;;25.01;40.05
19112;BME280;9688;51.906;8.376;2023-06-10T07:38:22;100768.09;;;25.15;40.01
19112;BME280;9688;51.906;8.376;2023-06-10T07:41:08;100772.16;;;25.29;39.51
19112;BME280;9688;51.906;8.376;2023-06-10T07:43:55;100762.75;;;25.33;38.86
19112;BME280;9688;51.906;8.376;2023-06-10T07:46:42;100763.28;;;25.37;38.45
19112;BME280;9688;51.906;8.376;2023-06-10T07:49:28;100769.81;;;25.44;38.33
19112;BME280;9688;51.906;8.376;2023-06-10T07:52:15;100772.22;;;25.47;38.42
19112;BME280;9688;51.906;8.376;2023-06-10T07:55:00;100772.63;;;25.52;37.88
19112;BME280;9688;51.906;8.376;2023-06-10T07:57:46;100773.56;;;25.61;37.85
19112;BME280;9688;51.906;8.376;2023-06-10T08:00:33;100772.53;;;25.62;37.66
19112;BME280;9688;51.906;8.376;2023-06-10T08:03:20;100765.50;;;25.69;36.90
19112;BME280;9688;51.906;8.376;2023-06-10T08:06:05;100774.31;;;25.71;36.60
19112;BME280;9688;51.906;8.376;2023-06-10T08:08:51;100773.03;;;25.75;35.81
19112;BME280;9688;51.906;8.376;2023-06-10T08:11:37;100770.44;;;25.74;35.49
19112;BME280;9688;51.906;8.376;2023-06-10T08:14:23;100777.59;;;25.75;35.54
19112;BME280;9688;51.906;8.376;2023-06-10T08:17:08;100777.41;;;25.76;35.86
19112;BME280;9688;51.906;8.376;2023-06-10T08:19:55;100773.41;;;25.80;35.90
19112;BME280;9688;51.906;8.376;2023-06-10T08:22:41;100779.50;;;25.82;36.24
19112;BME280;9688;51.906;8.376;2023-06-10T08:25:27;100773.03;;;25.93;36.06
19112;BME280;9688;51.906;8.376;2023-06-10T08:28:13;100772.72;;;25.96;36.05
19112;BME280;9688;51.906;8.376;2023-06-10T08:30:59;100789.38;;;26.01;36.19
19112;BME280;9688;51.906;8.376;2023-06-10T08:33:44;100778.94;;;26.07;36.23
19112;BME280;9688;51.906;8.376;2023-06-10T08:36:31;100781.00;;;26.13;36.35
19112;BME280;9688;51.906;8.376;2023-06-10T08:39:17;100784.09;;;26.18;36.45
19112;BME280;9688;51.906;8.376;2023-06-10T08:42:11;100782.31;;;26.26;36.71
19112;BME280;9688;51.906;8.376;2023-06-10T08:44:57;100784.16;;;26.26;37.09
19112;BME280;9688;51.906;8.376;2023-06-10T08:47:45;100783.91;;;26.37;36.90
19112;BME280;9688;51.906;8.376;2023-06-10T08:50:34;100773.59;;;26.59;37.38
19112;BME280;9688;51.906;8.376;2023-06-10T08:53:24;100772.34;;;27.05;37.09
19112;BME280;9688;51.906;8.376;2023-06-10T08:56:13;100773.22;;;27.56;36.89
19112;BME280;9688;51.906;8.376;2023-06-10T08:59:00;100774.38;;;27.96;35.93
19112;BME280;9688;51.906;8.376;2023-06-10T09:01:47;100768.06;;;28.20;36.30
19112;BME280;9688;51.906;8.376;2023-06-10T09:04:33;100770.63;;;28.38;36.22
19112;BME280;9688;51.906;8.376;2023-06-10T09:07:21;100764.00;;;28.57;35.69
19112;BME280;9688;51.906;8.376;2023-06-10T09:10:09;100766.00;;;28.72;36.11
19112;BME280;9688;51.906;8.376;2023-06-10T09:12:55;100780.59;;;28.79;35.75
19112;BME280;9688;51.906;8.376;2023-06-10T09:15:43;100772.31;;;28.64;35.84
19112;BME280;9688;51.906;8.376;2023-06-10T09:18:41;100771.13;;;28.42;35.54
19112;BME280;9688;51.906;8.376;2023-06-10T09:21:29;100771.31;;;28.24;36.15
19112;BME280;9688;51.906;8.376;2023-06-10T09:24:14;100769.78;;;28.30;36.09
19112;BME280;9688;51.906;8.376;2023-06-10T09:27:05;100767.56;;;28.33;36.25
19112;BME280;9688;51.906;8.376;2023-06-10T09:29:52;100766.38;;;28.36;36.07
19112;BME280;9688;51.906;8.376;2023-06-10T09:32:39;100771.28;;;28.32;35.84
19112;BME280;9688;51.906;8.376;2023-06-10T09:35:28;100770.09;;;28.27;35.65
19112;BME280;9688;51.906;8.376;2023-06-10T09:38:20;100769.44;;;28.24;35.65
19112;BME280;9688;51.906;8.376;2023-06-10T09:41:06;100770.09;;;28.27;35.89
19112;BME280;9688;51.906;8.376;2023-06-10T09:43:54;100762.81;;;28.27;36.38
19112;BME280;9688;51.906;8.376;2023-06-10T09:46:40;100768.91;;;28.29;36.61
19112;BME280;9688;51.906;8.376;2023-06-10T09:49:29;100765.00;;;28.32;36.87
19112;BME280;9688;51.906;8.376;2023-06-10T09:52:21;100769.78;;;28.30;36.75
19112;BME280;9688;51.906;8.376;2023-06-10T09:55:08;100760.25;;;28.17;36.93
19112;BME280;9688;51.906;8.376;2023-06-10T09:57:54;100769.59;;;28.15;37.11
19112;BME280;9688;51.906;8.376;2023-06-10T10:00:41;100758.72;;;28.07;37.38
19112;BME280;9688;51.906;8.376;2023-06-10T10:03:27;100768.25;;;28.02;37.79
19112;BME280;9688;51.906;8.376;2023-06-10T10:06:14;100765.19;;;27.97;37.84
19112;BME280;9688;51.906;8.376;2023-06-10T10:09:01;100763.28;;;27.90;37.79
19112;BME280;9688;51.906;8.376;2023-06-10T10:11:48;100764.31;;;27.89;38.68
19112;BME280;9688;51.906;8.376;2023-06-10T10:14:38;100760.03;;;27.78;39.28
19112;BME280;9688;51.906;8.376;2023-06-10T10:17:25;100771.03;;;27.68;39.42
19112;BME280;9688;51.906;8.376;2023-06-10T10:20:14;100774.28;;;27.64;40.08
19112;BME280;9688;51.906;8.376;2023-06-10T10:23:04;100762.88;;;27.68;40.41
19112;BME280;9688;51.906;8.376;2023-06-10T10:25:52;100753.44;;;27.80;40.46
19112;BME280;9688;51.906;8.376;2023-06-10T10:28:45;100758.06;;;27.96;40.65
19112;BME280;9688;51.906;8.376;2023-06-10T10:31:35;100757.53;;;28.09;41.27
19112;BME280;9688;51.906;8.376;2023-06-10T10:34:30;100755.31;;;28.21;40.97
19112;BME280;9688;51.906;8.376;2023-06-10T10:37:19;100759.75;;;28.22;41.48
19112;BME280;9688;51.906;8.376;2023-06-10T10:40:06;100747.00;;;28.22;41.18
19112;BME280;9688;51.906;8.376;2023-06-10T10:42:55;100754.47;;;28.20;41.17
19112;BME280;9688;51.906;8.376;2023-06-10T10:45:41;100753.81;;;28.10;41.48
19112;BME280;9688;51.906;8.376;2023-06-10T10:48:27;100757.03;;;28.22;41.73
19112;BME280;9688;51.906;8.376;2023-06-10T10:51:19;100745.25;;;28.38;41.85
19112;BME280;9688;51.906;8.376;2023-06-10T10:54:12;100754.13;;;28.32;41.69
19112;BME280;9688;51.906;8.376;2023-06-10T10:57:12;100753.47;;;28.21;42.10
19112;BME280;9688;51.906;8.376;2023-06-10T11:00:04;100742.25;;;28.16;42.06
19112;BME280;9688;51.906;8.376;2023-06-10T11:02:50;100743.44;;;28.14;42.32
19112;BME280;9688;51.906;8.376;2023-06-10T11:05:40;100742.06;;;28.10;42.29
19112;BME280;9688;51.906;8.376;2023-06-10T11:08:50;100741.72;;;28.29;42.21
19112;BME280;9688;51.906;8.376;2023-06-10T11:11:49;100733.41;;;28.47;41.73
19112;BME280;9688;51.906;8.376;2023-06-10T11:14:36;100732.69;;;28.53;42.21
19112;BME280;9688;51.906;8.376;2023-06-10T11:17:24;100736.09;;;28.63;41.51
19112;BME280;9688;51.906;8.376;2023-06-10T11:20:10;100731.81;;;28.69;41.17
19112;BME280;9688;51.906;8.376;2023-06-10T11:22:59;100735.69;;;28.83;40.47
19112;BME280;9688;51.906;8.376;2023-06-10T11:25:47;100727.69;;;28.81;40.12
19112;BME280;9688;51.906;8.376;2023-06-10T11:28:34;100733.59;;;28.93;40.67
19112;BME280;9688;51.906;8.376;2023-06-10T11:31:20;100727.47;;;29.07;40.16
19112;BME280;9688;51.906;8.376;2023-06-10T11:34:07;100732.72;;;29.09;40.13
19112;BME280;9688;51.906;8.376;2023-06-10T11:36:54;100725.75;;;29.06;39.55
19112;BME280;9688;51.906;8.376;2023-06-10T11:39:39;100734.09;;;29.05;39.69
19112;BME280;9688;51.906;8.376;2023-06-10T11:42:26;100728.81;;;29.03;39.09
19112;BME280;9688;51.906;8.376;2023-06-10T11:45:15;100724.78;;;28.91;39.32
19112;BME280;9688;51.906;8.376;2023-06-10T11:48:02;100721.41;;;28.81;39.34
19112;BME280;9688;51.906;8.376;2023-06-10T11:50:47;100721.88;;;28.84;39.62
19112;BME280;9688;51.906;8.376;2023-06-10T11:53:34;100714.50;;;29.01;39.51
19112;BME280;9688;51.906;8.376;2023-06-10T11:56:20;100714.66;;;29.16;39.34
19112;BME280;9688;51.906;8.376;2023-06-10T11:59:08;100714.25;;;29.27;38.94
19112;BME280;9688;51.906;8.376;2023-06-10T12:01:56;100708.59;;;29.29;38.85
19112;BME280;9688;51.906;8.376;2023-06-10T12:04:43;100714.25;;;29.27;38.77
19112;BME280;9688;51.906;8.376;2023-06-10T12:07:29;100714.38;;;29.34;39.15
19112;BME280;9688;51.906;8.376;2023-06-10T12:10:15;100714.22;;;29.35;38.93
19112;BME280;9688;51.906;8.376;2023-06-10T12:13:01;100709.59;;;29.36;39.65
19112;BME280;9688;51.906;8.376;2023-06-10T12:15:48;100703.25;;;29.44;39.42
19112;BME280;9688;51.906;8.376;2023-06-10T12:18:34;100714.28;;;29.50;39.05
19112;BME280;9688;51.906;8.376;2023-06-10T12:21:23;100703.00;;;29.53;39.04
19112;BME280;9688;51.906;8.376;2023-06-10T12:24:13;100707.09;;;29.57;39.13
19112;BME280;9688;51.906;8.376;2023-06-10T12:27:05;100700.50;;;29.75;38.95
19112;BME280;9688;51.906;8.376;2023-06-10T12:30:05;100707.41;;;29.86;38.54
19112;BME280;9688;51.906;8.376;2023-06-10T12:32:53;100706.63;;;29.77;39.25
19112;BME280;9688;51.906;8.376;2023-06-10T12:35:47;100716.69;;;29.76;39.21
19112;BME280;9688;51.906;8.376;2023-06-10T12:38:33;100703.91;;;29.77;39.60
19112;BME280;9688;51.906;8.376;2023-06-10T12:41:19;100699.66;;;29.74;39.45
19112;BME280;9688;51.906;8.376;2023-06-10T12:44:05;100707.47;;;29.77;39.92
19112;BME280;9688;51.906;8.376;2023-06-10T12:46:56;100698.16;;;29.72;39.74
19112;BME280;9688;51.906;8.376;2023-06-10T12:49:45;100702.81;;;29.63;39.76
19112;BME280;9688;51.906;8.376;2023-06-10T12:52:31;100706.88;;;29.67;39.82
19112;BME280;9688;51.906;8.376;2023-06-10T12:55:17;100704.06;;;29.75;40.10
19112;BME280;9688;51.906;8.376;2023-06-10T12:58:02;100700.97;;;29.78;39.35
19112;BME280;9688;51.906;8.376;2023-06-10T13:00:49;100704.84;;;29.84;39.26
19112;BME280;9688;51.906;8.376;2023-06-10T13:03:38;100706.63;;;29.77;39.10
19112;BME280;9688;51.906;8.376;2023-06-10T13:06:26;100701.59;;;29.66;39.77
19112;BME280;9688;51.906;8.376;2023-06-10T13:09:13;100696.63;;;29.69;39.41
19112;BME280;9688;51.906;8.376;2023-06-10T13:11:59;100699.72;;;29.89;39.35
19112;BME280;9688;51.906;8.376;2023-06-10T13:14:45;100702.84;;;30.01;39.26
19112;BME280;9688;51.906;8.376;2023-06-10T13:17:30;100698.72;;;30.05;38.78
19112;BME280;9688;51.906;8.376;2023-06-10T13:20:19;100686.16;;;30.19;39.07
19112;BME280;9688;51.906;8.376;2023-06-10T13:23:07;100686.78;;;30.29;38.52
19112;BME280;9688;51.906;8.376;2023-06-10T13:25:52;100680.94;;;30.32;38.66
19112;BME280;9688;51.906;8.376;2023-06-10T13:28:38;100680.44;;;30.29;39.13
19112;BME280;9688;51.906;8.376;2023-06-10T13:31:23;100662.91;;;30.08;39.33
19112;BME280;9688;51.906;8.376;2023-06-10T13:34:09;100677.16;;;29.95;40.12
19112;BME280;9688;51.906;8.376;2023-06-10T13:36:56;100670.84;;;29.95;40.16
19112;BME280;9688;51.906;8.376;2023-06-10T13:39:43;100660.78;;;29.95;39.90
19112;BME280;9688;51.906;8.376;2023-06-10T13:42:29;100672.44;;;29.89;38.85
19112;BME280;9688;51.906;8.376;2023-06-10T13:45:15;100664.56;;;29.94;38.01
19112;BME280;9688;51.906;8.376;2023-06-10T13:48:01;100655.75;;;30.07;37.84
19112;BME280;9688;51.906;8.376;2023-06-10T13:50:47;100657.16;;;30.18;37.82
19112;BME280;9688;51.906;8.376;2023-06-10T13:53:34;100650.63;;;30.27;37.13
19112;BME280;9688;51.906;8.376;2023-06-10T13:56:21;100646.50;;;30.31;36.74
19112;BME280;9688;51.906;8.376;2023-06-10T13:59:08;100651.00;;;30.24;36.75
19112;BME280;9688;51.906;8.376;2023-06-10T14:01:55;100645.19;;;30.27;36.68
19112;BME280;9688;51.906;8.376;2023-06-10T14:04:40;100648.56;;;30.29;36.76
19112;BME280;9688;51.906;8.376;2023-06-10T14:07:26;100653.00;;;30.30;36.76
19112;BME280;9688;51.906;8.376;2023-06-10T14:10:12;100644.59;;;30.32;36.52
19112;BME280;9688;51.906;8.376;2023-06-10T14:12:59;100647.25;;;30.25;36.90
19112;BME280;9688;51.906;8.376;2023-06-10T14:15:46;100634.81;;;30.22;36.36
19112;BME280;9688;51.906;8.376;2023-06-10T14:18:33;100643.47;;;30.26;36.47
19112;BME280;9688;51.906;8.376;2023-06-10T14:21:19;100645.94;;;30.36;36.69
19112;BME280;9688;51.906;8.376;2023-06-10T14:24:07;100634.66;;;30.39;36.64
19112;BME280;9688;51.906;8.376;2023-06-10T14:26:52;100639.91;;;30.26;36.70
19112;BME280;9688;51.906;8.376;2023-06-10T14:29:39;100634.31;;;30.19;36.82
19112;BME280;9688;51.906;8.376;2023-06-10T14:32:26;100649.97;;;30.25;37.01
19112;BME280;9688;51.906;8.376;2023-06-10T14:35:12;100642.06;;;30.30;36.90
19112;BME280;9688;51.906;8.376;2023-06-10T14:37:57;100641.78;;;30.40;36.87
19112;BME280;9688;51.906;8.376;2023-06-10T14:40:43;100643.13;;;30.44;37.08
19112;BME280;9688;51.906;8.376;2023-06-10T14:43:28;100638.50;;;30.44;36.72